sensor_id;sensor_type;location;lat;lon;timestamp;temperature;humidity
40816;DHT22;26535;48.788;9.214;2024-01-15T00:01:00;-0.20;96.00
40816;DHT22;26535;48.788;9.214;2024-01-15T00:03:29;-0.20;96.00
40816;DHT22;26535;48.788;9.214;2024-01-15T00:05:55;-0.30;96.10
40816;DHT22;26535;48.788;9.214;2024-01-15T00:08:21;-0.30;96.20
40816;DHT22;26535;48.788;9.214;2024-01-15T00:10:46;-0.40;96.30
40816;DHT22;26535;48.788;9.214;2024-01-15T00:13:12;-0.50;96.50
40816;DHT22;26535;48.788;9.214;2024-01-15T00:15:38;-0.50;96.70
40816;DHT22;26535;48.788;9.214;2024-01-15T00:18:06;-0.60;96.70
40816;DHT22;26535;48.788;9.214;2024-01-15T00:20:35;-0.60;96.90
40816;DHT22;26535;48.788;9.214;2024-01-15T00:23:01;-0.70;97.10
40816;DHT22;26535;48.788;9.214;2024-01-15T00:25:29;-0.80;97.20
40816;DHT22;26535;48.788;9.214;2024-01-15T00:27:55;-0.80;97.30
40816;DHT22;26535;48.788;9.214;2024-01-15T00:30:24;-0.90;97.40
40816;DHT22;26535;48.788;9.214;2024-01-15T00:32:49;-1.00;97.60
40816;DHT22;26535;48.788;9.214;2024-01-15T00:35:15;-1.00;97.80
40816;DHT22;26535;48.788;9.214;2024-01-15T00:37:44;-1.10;98.00
40816;DHT22;26535;48.788;9.214;2024-01-15T00:40:09;-1.10;98.20
40816;DHT22;26535;48.788;9.214;2024-01-15T00:42:35;-1.10;98.10
40816;DHT22;26535;48.788;9.214;2024-01-15T00:45:01;-1.10;98.30
40816;DHT22;26535;48.788;9.214;2024-01-15T00:47:26;-1.10;98.40
40816;DHT22;26535;48.788;9.214;2024-01-15T00:49:55;-1.20;98.40
40816;DHT22;26535;48.788;9.214;2024-01-15T00:52:21;-1.10;98.50
40816;DHT22;26535;48.788;9.214;2024-01-15T00:54:55;-1.20;98.50
40816;DHT22;26535;48.788;9.214;2024-01-15T00:57:27;-1.20;98.80
40816;DHT22;26535;48.788;9.214;2024-01-15T00:59:55;-1.20;98.70
40816;DHT22;26535;48.788;9.214;2024-01-15T01:02:27;-1.20;98.80
40816;DHT22;26535;48.788;9.214;2024-01-15T01:04:56;-1.10;98.90
40816;DHT22;26535;48.788;9.214;2024-01-15T01:07:27;-1.10;98.90
40816;DHT22;26535;48.788;9.214;2024-01-15T01:09:56;-0.90;98.70
40816;DHT22;26535;48.788;9.214;2024-01-15T01:12:24;-0.90;98.60
40816;DHT22;26535;48.788;9.214;2024-01-15T01:14:53;-0.90;98.70
40816;DHT22;26535;48.788;9.214;2024-01-15T01:17:19;-0.90;98.60
40816;DHT22;26535;48.788;9.214;2024-01-15T01:19:48;-0.80;98.70
40816;DHT22;26535;48.788;9.214;2024-01-15T01:22:14;-0.70;98.50
40816;DHT22;26535;48.788;9.214;2024-01-15T01:24:43;-0.70;98.30
40816;DHT22;26535;48.788;9.214;2024-01-15T01:27:12;-0.60;98.40
40816;DHT22;26535;48.788;9.214;2024-01-15T01:29:37;-0.60;98.40
40816;DHT22;26535;48.788;9.214;2024-01-15T01:32:06;-0.60;98.40
40816;DHT22;26535;48.788;9.214;2024-01-15T01:34:32;-0.60;98.40
40816;DHT22;26535;48.788;9.214;2024-01-15T01:37:04;-0.50;98.40
40816;DHT22;26535;48.788;9.214;2024-01-15T01:39:33;-0.50;98.40
40816;DHT22;26535;48.788;9.214;2024-01-15T01:42:05;-0.50;98.40
40816;DHT22;26535;48.788;9.214;2024-01-15T01:44:39;-0.40;98.20
40816;DHT22;26535;48.788;9.214;2024-01-15T01:47:05;-0.30;98.20
40816;DHT22;26535;48.788;9.214;2024-01-15T01:49:34;-0.30;98.20
40816;DHT22;26535;48.788;9.214;2024-01-15T01:52:05;-0.30;98.10
40816;DHT22;26535;48.788;9.214;2024-01-15T01:54:35;-0.20;98.00
40816;DHT22;26535;48.788;9.214;2024-01-15T01:57:03;-0.20;97.90
40816;DHT22;26535;48.788;9.214;2024-01-15T01:59:29;-0.20;97.90
40816;DHT22;26535;48.788;9.214;2024-01-15T02:01:56;-0.20;98.00
40816;DHT22;26535;48.788;9.214;2024-01-15T02:04:31;-0.20;98.10
40816;DHT22;26535;48.788;9.214;2024-01-15T02:07:03;-0.20;98.20
40816;DHT22;26535;48.788;9.214;2024-01-15T02:09:29;-0.20;98.20
40816;DHT22;26535;48.788;9.214;2024-01-15T02:11:58;-0.20;98.30
40816;DHT22;26535;48.788;9.214;2024-01-15T02:14:24;-0.20;98.20
40816;DHT22;26535;48.788;9.214;2024-01-15T02:16:52;-0.20;98.30
40816;DHT22;26535;48.788;9.214;2024-01-15T02:19:18;-0.30;98.40
40816;DHT22;26535;48.788;9.214;2024-01-15T02:21:44;-0.30;98.40
40816;DHT22;26535;48.788;9.214;2024-01-15T02:24:10;-0.30;98.40
40816;DHT22;26535;48.788;9.214;2024-01-15T02:26:42;-0.30;98.50
40816;DHT22;26535;48.788;9.214;2024-01-15T02:29:08;-0.30;98.60
40816;DHT22;26535;48.788;9.214;2024-01-15T02:31:35;-0.40;98.80
40816;DHT22;26535;48.788;9.214;2024-01-15T02:34:04;-0.50;98.80
40816;DHT22;26535;48.788;9.214;2024-01-15T02:36:33;-0.60;99.00
40816;DHT22;26535;48.788;9.214;2024-01-15T02:39:04;-0.60;99.20
40816;DHT22;26535;48.788;9.214;2024-01-15T02:41:30;-0.60;99.20
40816;DHT22;26535;48.788;9.214;2024-01-15T02:43:55;-0.60;99.40
40816;DHT22;26535;48.788;9.214;2024-01-15T02:46:24;-0.60;99.40
40816;DHT22;26535;48.788;9.214;2024-01-15T02:48:53;-0.70;99.40
40816;DHT22;26535;48.788;9.214;2024-01-15T02:51:18;-0.80;99.50
40816;DHT22;26535;48.788;9.214;2024-01-15T02:53:50;-0.80;99.60
40816;DHT22;26535;48.788;9.214;2024-01-15T02:56:16;-0.80;99.70
40816;DHT22;26535;48.788;9.214;2024-01-15T02:58:41;-0.80;99.70
40816;DHT22;26535;48.788;9.214;2024-01-15T03:01:13;-0.90;99.80
40816;DHT22;26535;48.788;9.214;2024-01-15T03:03:40;-1.00;99.90
40816;DHT22;26535;48.788;9.214;2024-01-15T03:06:06;-1.00;99.90
40816;DHT22;26535;48.788;9.214;2024-01-15T03:08:34;-1.00;99.90
40816;DHT22;26535;48.788;9.214;2024-01-15T03:11:00;-1.10;99.90
40816;DHT22;26535;48.788;9.214;2024-01-15T03:13:26;-1.00;99.90
40816;DHT22;26535;48.788;9.214;2024-01-15T03:15:52;-1.10;99.90
40816;DHT22;26535;48.788;9.214;2024-01-15T03:18:20;-1.10;99.90
40816;DHT22;26535;48.788;9.214;2024-01-15T03:20:49;-1.10;99.90
40816;DHT22;26535;48.788;9.214;2024-01-15T03:23:14;-1.20;99.90
40816;DHT22;26535;48.788;9.214;2024-01-15T03:25:40;-1.20;99.90
40816;DHT22;26535;48.788;9.214;2024-01-15T03:28:06;-1.20;99.90
40816;DHT22;26535;48.788;9.214;2024-01-15T03:30:34;-1.20;99.90
40816;DHT22;26535;48.788;9.214;2024-01-15T03:33:03;-1.20;99.90
40816;DHT22;26535;48.788;9.214;2024-01-15T03:35:29;-1.20;99.90
40816;DHT22;26535;48.788;9.214;2024-01-15T03:37:59;-1.10;99.90
40816;DHT22;26535;48.788;9.214;2024-01-15T03:40:24;-1.10;99.90
40816;DHT22;26535;48.788;9.214;2024-01-15T03:42:50;-1.10;99.90
40816;DHT22;26535;48.788;9.214;2024-01-15T03:45:19;-1.10;99.90
40816;DHT22;26535;48.788;9.214;2024-01-15T03:47:45;-1.00;99.90
40816;DHT22;26535;48.788;9.214;2024-01-15T03:50:14;-0.90;99.90
40816;DHT22;26535;48.788;9.214;2024-01-15T03:52:39;-0.90;99.90
40816;DHT22;26535;48.788;9.214;2024-01-15T03:55:08;-0.80;99.90
40816;DHT22;26535;48.788;9.214;2024-01-15T03:57:33;-0.70;99.90
40816;DHT22;26535;48.788;9.214;2024-01-15T03:59:59;-0.70;99.90
40816;DHT22;26535;48.788;9.214;2024-01-15T04:02:30;-0.70;99.90
40816;DHT22;26535;48.788;9.214;2024-01-15T04:04:56;-0.60;99.80
40816;DHT22;26535;48.788;9.214;2024-01-15T04:07:25;-0.60;99.80
40816;DHT22;26535;48.788;9.214;2024-01-15T04:09:50;-0.60;99.80
40816;DHT22;26535;48.788;9.214;2024-01-15T04:12:19;-0.60;99.80
40816;DHT22;26535;48.788;9.214;2024-01-15T04:14:44;-0.60;99.80
40816;DHT22;26535;48.788;9.214;2024-01-15T04:17:13;-0.50;99.70
40816;DHT22;26535;48.788;9.214;2024-01-15T04:19:39;-0.40;99.60
40816;DHT22;26535;48.788;9.214;2024-01-15T04:22:04;-0.40;99.60
40816;DHT22;26535;48.788;9.214;2024-01-15T04:24:31;-0.30;99.50
40816;DHT22;26535;48.788;9.214;2024-01-15T04:27:00;-0.30;99.30
40816;DHT22;26535;48.788;9.214;2024-01-15T04:29:32;-0.30;99.30
40816;DHT22;26535;48.788;9.214;2024-01-15T04:32:03;-0.20;99.30
40816;DHT22;26535;48.788;9.214;2024-01-15T04:34:32;-0.20;99.40
40816;DHT22;26535;48.788;9.214;2024-01-15T04:36:58;-0.20;99.20
40816;DHT22;26535;48.788;9.214;2024-01-15T04:39:23;-0.10;99.10
40816;DHT22;26535;48.788;9.214;2024-01-15T04:41:55;0.00;98.90
40816;DHT22;26535;48.788;9.214;2024-01-15T04:44:24;0.10;98.70
40816;DHT22;26535;48.788;9.214;2024-01-15T04:46:50;0.20;98.50
40816;DHT22;26535;48.788;9.214;2024-01-15T04:49:18;0.30;98.30
40816;DHT22;26535;48.788;9.214;2024-01-15T04:51:44;0.40;98.20
40816;DHT22;26535;48.788;9.214;2024-01-15T04:54:13;0.40;98.10
40816;DHT22;26535;48.788;9.214;2024-01-15T04:56:43;0.40;98.10
40816;DHT22;26535;48.788;9.214;2024-01-15T04:59:09;0.50;98.00
40816;DHT22;26535;48.788;9.214;2024-01-15T05:01:40;0.50;97.90
40816;DHT22;26535;48.788;9.214;2024-01-15T05:04:09;0.50;97.90
40816;DHT22;26535;48.788;9.214;2024-01-15T05:06:37;0.70;97.70
40816;DHT22;26535;48.788;9.214;2024-01-15T05:09:03;0.70;97.70
40816;DHT22;26535;48.788;9.214;2024-01-15T05:11:29;0.60;97.80
40816;DHT22;26535;48.788;9.214;2024-01-15T05:14:07;0.70;98.00
40816;DHT22;26535;48.788;9.214;2024-01-15T05:16:32;0.60;97.90
40816;DHT22;26535;48.788;9.214;2024-01-15T05:19:02;0.70;97.90
40816;DHT22;26535;48.788;9.214;2024-01-15T05:21:33;0.70;98.00
40816;DHT22;26535;48.788;9.214;2024-01-15T05:23:59;0.70;98.00
40816;DHT22;26535;48.788;9.214;2024-01-15T05:26:28;0.70;98.10
40816;DHT22;26535;48.788;9.214;2024-01-15T05:28:53;0.60;98.10
40816;DHT22;26535;48.788;9.214;2024-01-15T05:31:28;0.60;98.20
40816;DHT22;26535;48.788;9.214;2024-01-15T05:33:53;0.70;98.20
40816;DHT22;26535;48.788;9.214;2024-01-15T05:36:25;0.60;98.30
40816;DHT22;26535;48.788;9.214;2024-01-15T05:38:57;0.60;98.20
40816;DHT22;26535;48.788;9.214;2024-01-15T05:41:25;0.70;98.10
40816;DHT22;26535;48.788;9.214;2024-01-15T05:44:01;0.70;98.00
40816;DHT22;26535;48.788;9.214;2024-01-15T05:46:29;0.70;98.00
40816;DHT22;26535;48.788;9.214;2024-01-15T05:48:55;0.70;97.80
40816;DHT22;26535;48.788;9.214;2024-01-15T05:51:20;0.70;97.80
40816;DHT22;26535;48.788;9.214;2024-01-15T05:53:46;0.80;97.80
40816;DHT22;26535;48.788;9.214;2024-01-15T05:56:12;0.80;97.60
40816;DHT22;26535;48.788;9.214;2024-01-15T05:58:39;0.80;97.60
40816;DHT22;26535;48.788;9.214;2024-01-15T06:01:07;0.80;97.60
40816;DHT22;26535;48.788;9.214;2024-01-15T06:03:33;0.70;97.50
40816;DHT22;26535;48.788;9.214;2024-01-15T06:06:02;0.80;97.50
40816;DHT22;26535;48.788;9.214;2024-01-15T06:08:31;0.80;97.40
40816;DHT22;26535;48.788;9.214;2024-01-15T06:10:59;0.80;97.40
40816;DHT22;26535;48.788;9.214;2024-01-15T06:13:34;0.80;97.30
40816;DHT22;26535;48.788;9.214;2024-01-15T06:15:59;0.80;97.40
40816;DHT22;26535;48.788;9.214;2024-01-15T06:18:25;0.80;97.50
40816;DHT22;26535;48.788;9.214;2024-01-15T06:20:58;0.80;97.40
40816;DHT22;26535;48.788;9.214;2024-01-15T06:23:24;0.70;97.50
40816;DHT22;26535;48.788;9.214;2024-01-15T06:25:55;0.70;97.40
40816;DHT22;26535;48.788;9.214;2024-01-15T06:28:21;0.80;97.30
40816;DHT22;26535;48.788;9.214;2024-01-15T06:30:57;0.70;97.30
40816;DHT22;26535;48.788;9.214;2024-01-15T06:33:31;0.70;97.50
40816;DHT22;26535;48.788;9.214;2024-01-15T06:35:56;0.70;97.50
40816;DHT22;26535;48.788;9.214;2024-01-15T06:38:33;0.70;97.30
40816;DHT22;26535;48.788;9.214;2024-01-15T06:41:08;0.80;97.20
40816;DHT22;26535;48.788;9.214;2024-01-15T06:43:36;0.80;97.30
40816;DHT22;26535;48.788;9.214;2024-01-15T06:46:05;0.80;97.40
40816;DHT22;26535;48.788;9.214;2024-01-15T06:48:31;0.70;97.50
40816;DHT22;26535;48.788;9.214;2024-01-15T06:50:57;0.70;97.60
40816;DHT22;26535;48.788;9.214;2024-01-15T06:53:31;0.70;97.60
40816;DHT22;26535;48.788;9.214;2024-01-15T06:56:00;0.70;97.60
40816;DHT22;26535;48.788;9.214;2024-01-15T06:58:34;0.70;97.60
40816;DHT22;26535;48.788;9.214;2024-01-15T07:01:05;0.70;97.60
40816;DHT22;26535;48.788;9.214;2024-01-15T07:03:34;0.70;97.60
40816;DHT22;26535;48.788;9.214;2024-01-15T07:06:00;0.70;97.60
40816;DHT22;26535;48.788;9.214;2024-01-15T07:08:26;0.70;97.50
40816;DHT22;26535;48.788;9.214;2024-01-15T07:10:57;0.70;97.50
40816;DHT22;26535;48.788;9.214;2024-01-15T07:13:32;0.80;97.30
40816;DHT22;26535;48.788;9.214;2024-01-15T07:15:58;0.80;97.10
40816;DHT22;26535;48.788;9.214;2024-01-15T07:18:27;0.80;96.90
40816;DHT22;26535;48.788;9.214;2024-01-15T07:20:59;0.90;96.80
40816;DHT22;26535;48.788;9.214;2024-01-15T07:23:31;0.80;96.90
40816;DHT22;26535;48.788;9.214;2024-01-15T07:26:13;0.80;97.00
40816;DHT22;26535;48.788;9.214;2024-01-15T07:28:42;0.80;96.70
40816;DHT22;26535;48.788;9.214;2024-01-15T07:33:54;1.00;96.50
40816;DHT22;26535;48.788;9.214;2024-01-15T07:36:20;0.90;96.40
40816;DHT22;26535;48.788;9.214;2024-01-15T07:38:46;1.00;96.30
40816;DHT22;26535;48.788;9.214;2024-01-15T07:41:15;1.00;96.30
40816;DHT22;26535;48.788;9.214;2024-01-15T07:43:40;1.00;96.40
40816;DHT22;26535;48.788;9.214;2024-01-15T07:46:09;1.00;96.30
40816;DHT22;26535;48.788;9.214;2024-01-15T07:48:35;1.00;96.30
40816;DHT22;26535;48.788;9.214;2024-01-15T07:51:01;1.00;96.30
40816;DHT22;26535;48.788;9.214;2024-01-15T07:53:27;1.00;96.10
40816;DHT22;26535;48.788;9.214;2024-01-15T07:55:53;1.00;95.90
40816;DHT22;26535;48.788;9.214;2024-01-15T07:58:25;1.10;95.90
40816;DHT22;26535;48.788;9.214;2024-01-15T08:00:51;1.00;95.80
40816;DHT22;26535;48.788;9.214;2024-01-15T08:03:17;1.10;95.80
40816;DHT22;26535;48.788;9.214;2024-01-15T08:05:43;1.10;95.60
40816;DHT22;26535;48.788;9.214;2024-01-15T08:08:10;1.20;95.20
40816;DHT22;26535;48.788;9.214;2024-01-15T08:10:39;1.20;95.30
40816;DHT22;26535;48.788;9.214;2024-01-15T08:13:05;1.20;95.00
40816;DHT22;26535;48.788;9.214;2024-01-15T08:15:33;1.20;94.80
40816;DHT22;26535;48.788;9.214;2024-01-15T08:17:59;1.20;94.80
40816;DHT22;26535;48.788;9.214;2024-01-15T08:20:24;1.20;94.90
40816;DHT22;26535;48.788;9.214;2024-01-15T08:22:50;1.30;94.90
40816;DHT22;26535;48.788;9.214;2024-01-15T08:25:16;1.30;94.50
40816;DHT22;26535;48.788;9.214;2024-01-15T08:27:45;1.30;94.60
40816;DHT22;26535;48.788;9.214;2024-01-15T08:30:14;1.30;94.50
40816;DHT22;26535;48.788;9.214;2024-01-15T08:32:42;1.40;94.50
40816;DHT22;26535;48.788;9.214;2024-01-15T08:35:09;1.40;94.40
40816;DHT22;26535;48.788;9.214;2024-01-15T08:37:34;1.40;94.20
40816;DHT22;26535;48.788;9.214;2024-01-15T08:40:00;1.50;93.90
40816;DHT22;26535;48.788;9.214;2024-01-15T08:42:29;1.50;93.90
40816;DHT22;26535;48.788;9.214;2024-01-15T08:44:57;1.50;93.80
40816;DHT22;26535;48.788;9.214;2024-01-15T08:47:26;1.50;93.90
40816;DHT22;26535;48.788;9.214;2024-01-15T08:49:54;1.70;93.90
40816;DHT22;26535;48.788;9.214;2024-01-15T08:52:20;1.70;93.50
40816;DHT22;26535;48.788;9.214;2024-01-15T08:54:49;1.70;93.50
40816;DHT22;26535;48.788;9.214;2024-01-15T08:57:15;1.80;93.60
40816;DHT22;26535;48.788;9.214;2024-01-15T08:59:40;1.70;93.60
40816;DHT22;26535;48.788;9.214;2024-01-15T09:02:06;1.80;93.30
40816;DHT22;26535;48.788;9.214;2024-01-15T09:04:33;1.90;92.90
40816;DHT22;26535;48.788;9.214;2024-01-15T09:07:02;1.90;92.60
40816;DHT22;26535;48.788;9.214;2024-01-15T09:09:27;2.00;92.60
40816;DHT22;26535;48.788;9.214;2024-01-15T09:11:59;2.00;92.60
40816;DHT22;26535;48.788;9.214;2024-01-15T09:14:28;2.00;92.30
40816;DHT22;26535;48.788;9.214;2024-01-15T09:16:54;2.00;92.10
40816;DHT22;26535;48.788;9.214;2024-01-15T09:19:22;2.10;92.10
40816;DHT22;26535;48.788;9.214;2024-01-15T09:21:51;2.10;92.00
40816;DHT22;26535;48.788;9.214;2024-01-15T09:24:16;1.90;92.30
40816;DHT22;26535;48.788;9.214;2024-01-15T09:26:42;1.90;92.60
40816;DHT22;26535;48.788;9.214;2024-01-15T09:29:08;2.00;92.30
40816;DHT22;26535;48.788;9.214;2024-01-15T09:31:38;2.10;92.20
40816;DHT22;26535;48.788;9.214;2024-01-15T09:34:04;2.10;91.80
40816;DHT22;26535;48.788;9.214;2024-01-15T09:36:29;2.10;91.80
40816;DHT22;26535;48.788;9.214;2024-01-15T09:38:58;2.20;91.80
40816;DHT22;26535;48.788;9.214;2024-01-15T09:41:24;2.20;91.70
40816;DHT22;26535;48.788;9.214;2024-01-15T09:43:51;2.20;91.70
40816;DHT22;26535;48.788;9.214;2024-01-15T09:46:23;2.30;91.40
40816;DHT22;26535;48.788;9.214;2024-01-15T09:48:55;2.40;91.40
40816;DHT22;26535;48.788;9.214;2024-01-15T09:51:21;2.40;91.50
40816;DHT22;26535;48.788;9.214;2024-01-15T09:53:47;2.50;91.30
40816;DHT22;26535;48.788;9.214;2024-01-15T09:56:14;2.50;91.20
40816;DHT22;26535;48.788;9.214;2024-01-15T09:58:40;2.40;91.40
40816;DHT22;26535;48.788;9.214;2024-01-15T10:01:08;2.40;91.30
40816;DHT22;26535;48.788;9.214;2024-01-15T10:03:34;2.40;91.70
40816;DHT22;26535;48.788;9.214;2024-01-15T10:06:03;2.40;91.50
40816;DHT22;26535;48.788;9.214;2024-01-15T10:08:37;2.40;91.50
40816;DHT22;26535;48.788;9.214;2024-01-15T10:11:02;2.40;91.50
40816;DHT22;26535;48.788;9.214;2024-01-15T10:13:30;2.40;91.50
40816;DHT22;26535;48.788;9.214;2024-01-15T10:15:56;2.40;91.60
40816;DHT22;26535;48.788;9.214;2024-01-15T10:18:21;2.40;91.60
40816;DHT22;26535;48.788;9.214;2024-01-15T10:20:47;2.50;91.40
40816;DHT22;26535;48.788;9.214;2024-01-15T10:23:14;2.50;91.30
40816;DHT22;26535;48.788;9.214;2024-01-15T10:25:42;2.50;91.40
40816;DHT22;26535;48.788;9.214;2024-01-15T10:28:08;2.50;91.50
40816;DHT22;26535;48.788;9.214;2024-01-15T10:30:38;2.70;91.40
40816;DHT22;26535;48.788;9.214;2024-01-15T10:33:04;2.70;91.30
40816;DHT22;26535;48.788;9.214;2024-01-15T10:35:34;2.70;91.30
40816;DHT22;26535;48.788;9.214;2024-01-15T10:38:00;2.70;91.20
40816;DHT22;26535;48.788;9.214;2024-01-15T10:40:27;2.70;91.00
40816;DHT22;26535;48.788;9.214;2024-01-15T10:42:53;2.70;91.10
40816;DHT22;26535;48.788;9.214;2024-01-15T10:45:19;2.70;91.20
40816;DHT22;26535;48.788;9.214;2024-01-15T10:47:45;2.70;91.20
40816;DHT22;26535;48.788;9.214;2024-01-15T10:50:11;2.70;91.20
40816;DHT22;26535;48.788;9.214;2024-01-15T10:52:38;2.80;91.20
40816;DHT22;26535;48.788;9.214;2024-01-15T10:55:09;2.80;91.10
40816;DHT22;26535;48.788;9.214;2024-01-15T10:57:38;2.80;91.20
40816;DHT22;26535;48.788;9.214;2024-01-15T11:00:05;3.00;91.10
40816;DHT22;26535;48.788;9.214;2024-01-15T11:02:39;2.90;91.00
40816;DHT22;26535;48.788;9.214;2024-01-15T11:07:58;3.00;90.90
40816;DHT22;26535;48.788;9.214;2024-01-15T11:10:45;3.20;91.00
40816;DHT22;26535;48.788;9.214;2024-01-15T11:13:46;3.30;90.70
40816;DHT22;26535;48.788;9.214;2024-01-15T11:16:17;3.00;91.30
40816;DHT22;26535;48.788;9.214;2024-01-15T11:19:01;2.90;92.00
40816;DHT22;26535;48.788;9.214;2024-01-15T11:21:34;2.90;92.40
40816;DHT22;26535;48.788;9.214;2024-01-15T11:24:07;2.90;92.80
40816;DHT22;26535;48.788;9.214;2024-01-15T11:29:41;2.60;94.40
40816;DHT22;26535;48.788;9.214;2024-01-15T11:32:35;2.50;95.30
40816;DHT22;26535;48.788;9.214;2024-01-15T11:35:16;2.60;95.00
40816;DHT22;26535;48.788;9.214;2024-01-15T11:42:59;2.80;94.40
40816;DHT22;26535;48.788;9.214;2024-01-15T11:45:25;2.80;94.90
40816;DHT22;26535;48.788;9.214;2024-01-15T11:48:16;2.80;94.30
40816;DHT22;26535;48.788;9.214;2024-01-15T11:50:46;2.60;94.80
40816;DHT22;26535;48.788;9.214;2024-01-15T11:53:40;2.50;95.30
40816;DHT22;26535;48.788;9.214;2024-01-15T11:56:14;2.30;96.60
40816;DHT22;26535;48.788;9.214;2024-01-15T11:58:43;2.20;96.80
40816;DHT22;26535;48.788;9.214;2024-01-15T12:01:11;2.20;96.70
40816;DHT22;26535;48.788;9.214;2024-01-15T12:03:39;2.20;96.70
40816;DHT22;26535;48.788;9.214;2024-01-15T12:06:06;2.10;97.10
40816;DHT22;26535;48.788;9.214;2024-01-15T12:08:33;2.10;97.50
40816;DHT22;26535;48.788;9.214;2024-01-15T12:10:58;2.10;97.10
40816;DHT22;26535;48.788;9.214;2024-01-15T12:13:28;2.20;97.30
40816;DHT22;26535;48.788;9.214;2024-01-15T12:15:54;2.30;96.90
40816;DHT22;26535;48.788;9.214;2024-01-15T12:18:20;2.30;96.50
40816;DHT22;26535;48.788;9.214;2024-01-15T12:20:46;2.30;96.80
40816;DHT22;26535;48.788;9.214;2024-01-15T12:23:12;2.30;97.40
40816;DHT22;26535;48.788;9.214;2024-01-15T12:25:39;2.10;98.20
40816;DHT22;26535;48.788;9.214;2024-01-15T12:28:06;2.00;99.00
40816;DHT22;26535;48.788;9.214;2024-01-15T12:30:33;1.90;99.80
40816;DHT22;26535;48.788;9.214;2024-01-15T12:33:06;1.80;99.90
40816;DHT22;26535;48.788;9.214;2024-01-15T12:35:35;1.70;99.90
40816;DHT22;26535;48.788;9.214;2024-01-15T12:38:04;1.70;99.90
40816;DHT22;26535;48.788;9.214;2024-01-15T12:40:31;1.60;99.90
40816;DHT22;26535;48.788;9.214;2024-01-15T12:43:03;1.60;99.90
40816;DHT22;26535;48.788;9.214;2024-01-15T12:45:30;1.50;99.90
40816;DHT22;26535;48.788;9.214;2024-01-15T12:47:55;1.40;99.90
40816;DHT22;26535;48.788;9.214;2024-01-15T12:50:24;1.40;99.90
40816;DHT22;26535;48.788;9.214;2024-01-15T12:52:50;1.30;99.90
40816;DHT22;26535;48.788;9.214;2024-01-15T12:55:17;1.30;99.90
40816;DHT22;26535;48.788;9.214;2024-01-15T12:57:42;1.20;99.90
40816;DHT22;26535;48.788;9.214;2024-01-15T13:00:08;1.10;99.90
40816;DHT22;26535;48.788;9.214;2024-01-15T13:02:38;1.10;99.90
40816;DHT22;26535;48.788;9.214;2024-01-15T13:05:06;1.20;99.90
40816;DHT22;26535;48.788;9.214;2024-01-15T13:07:32;1.20;99.90
40816;DHT22;26535;48.788;9.214;2024-01-15T13:09:58;1.40;99.90
40816;DHT22;26535;48.788;9.214;2024-01-15T13:12:27;1.40;99.90
40816;DHT22;26535;48.788;9.214;2024-01-15T13:14:53;1.40;99.90
40816;DHT22;26535;48.788;9.214;2024-01-15T13:17:19;1.50;99.90
40816;DHT22;26535;48.788;9.214;2024-01-15T13:19:47;1.50;99.90
40816;DHT22;26535;48.788;9.214;2024-01-15T13:22:15;1.40;99.90
40816;DHT22;26535;48.788;9.214;2024-01-15T13:24:44;1.40;99.90
40816;DHT22;26535;48.788;9.214;2024-01-15T13:27:11;1.40;99.90
40816;DHT22;26535;48.788;9.214;2024-01-15T13:29:37;1.40;99.90
40816;DHT22;26535;48.788;9.214;2024-01-15T13:32:04;1.40;99.90
40816;DHT22;26535;48.788;9.214;2024-01-15T13:34:30;1.40;99.90
40816;DHT22;26535;48.788;9.214;2024-01-15T13:36:56;1.40;99.90
40816;DHT22;26535;48.788;9.214;2024-01-15T13:39:22;1.40;99.90
40816;DHT22;26535;48.788;9.214;2024-01-15T13:41:49;1.40;99.90
40816;DHT22;26535;48.788;9.214;2024-01-15T13:44:15;1.40;99.90
40816;DHT22;26535;48.788;9.214;2024-01-15T13:46:40;1.40;99.90
40816;DHT22;26535;48.788;9.214;2024-01-15T13:49:07;1.40;99.90
40816;DHT22;26535;48.788;9.214;2024-01-15T13:51:35;1.40;99.90
40816;DHT22;26535;48.788;9.214;2024-01-15T13:54:01;1.40;99.90
40816;DHT22;26535;48.788;9.214;2024-01-15T13:56:26;1.50;99.90
40816;DHT22;26535;48.788;9.214;2024-01-15T13:58:57;1.50;99.90
40816;DHT22;26535;48.788;9.214;2024-01-15T14:01:23;1.40;99.90
40816;DHT22;26535;48.788;9.214;2024-01-15T14:03:49;1.40;99.90
40816;DHT22;26535;48.788;9.214;2024-01-15T14:06:15;1.40;99.90
40816;DHT22;26535;48.788;9.214;2024-01-15T14:08:40;1.30;99.90
40816;DHT22;26535;48.788;9.214;2024-01-15T14:11:06;1.40;99.90
40816;DHT22;26535;48.788;9.214;2024-01-15T14:13:41;1.40;99.90
40816;DHT22;26535;48.788;9.214;2024-01-15T14:16:06;1.30;99.90
40816;DHT22;26535;48.788;9.214;2024-01-15T14:18:32;1.30;99.90
40816;DHT22;26535;48.788;9.214;2024-01-15T14:21:13;1.40;99.90
40816;DHT22;26535;48.788;9.214;2024-01-15T14:23:40;1.50;99.90
40816;DHT22;26535;48.788;9.214;2024-01-15T14:26:06;1.50;99.90
40816;DHT22;26535;48.788;9.214;2024-01-15T14:28:31;1.50;99.90
40816;DHT22;26535;48.788;9.214;2024-01-15T14:30:57;1.50;99.90
40816;DHT22;26535;48.788;9.214;2024-01-15T14:33:36;1.50;99.90
40816;DHT22;26535;48.788;9.214;2024-01-15T14:36:02;1.50;99.90
40816;DHT22;26535;48.788;9.214;2024-01-15T14:38:27;1.60;99.90
40816;DHT22;26535;48.788;9.214;2024-01-15T14:40:53;1.70;99.90
40816;DHT22;26535;48.788;9.214;2024-01-15T14:43:19;1.70;99.90
40816;DHT22;26535;48.788;9.214;2024-01-15T14:45:51;1.60;99.90
40816;DHT22;26535;48.788;9.214;2024-01-15T14:48:17;1.60;99.90
40816;DHT22;26535;48.788;9.214;2024-01-15T14:50:42;1.50;99.90
40816;DHT22;26535;48.788;9.214;2024-01-15T14:53:08;1.40;99.90
40816;DHT22;26535;48.788;9.214;2024-01-15T14:55:34;1.40;99.90
40816;DHT22;26535;48.788;9.214;2024-01-15T14:57:59;1.20;99.90
40816;DHT22;26535;48.788;9.214;2024-01-15T15:00:25;1.20;99.90
40816;DHT22;26535;48.788;9.214;2024-01-15T15:02:51;1.00;99.90
40816;DHT22;26535;48.788;9.214;2024-01-15T15:05:16;0.90;99.90
40816;DHT22;26535;48.788;9.214;2024-01-15T15:07:43;0.90;99.90
40816;DHT22;26535;48.788;9.214;2024-01-15T15:10:09;0.90;99.90
40816;DHT22;26535;48.788;9.214;2024-01-15T15:12:36;0.90;99.90
40816;DHT22;26535;48.788;9.214;2024-01-15T15:15:02;0.90;99.90
40816;DHT22;26535;48.788;9.214;2024-01-15T15:17:28;0.90;99.90
40816;DHT22;26535;48.788;9.214;2024-01-15T15:19:54;0.90;99.90
40816;DHT22;26535;48.788;9.214;2024-01-15T15:22:20;0.90;99.90
40816;DHT22;26535;48.788;9.214;2024-01-15T15:24:46;0.80;99.90
40816;DHT22;26535;48.788;9.214;2024-01-15T15:27:11;1.00;99.90
40816;DHT22;26535;48.788;9.214;2024-01-15T15:29:37;0.90;99.90
40816;DHT22;26535;48.788;9.214;2024-01-15T15:32:03;0.90;99.90
40816;DHT22;26535;48.788;9.214;2024-01-15T15:34:29;1.00;99.90
40816;DHT22;26535;48.788;9.214;2024-01-15T15:36:54;1.00;99.90
40816;DHT22;26535;48.788;9.214;2024-01-15T15:39:26;1.00;99.90
40816;DHT22;26535;48.788;9.214;2024-01-15T15:41:52;1.00;99.90
40816;DHT22;26535;48.788;9.214;2024-01-15T15:44:19;1.00;99.90
40816;DHT22;26535;48.788;9.214;2024-01-15T15:46:44;1.10;99.90
40816;DHT22;26535;48.788;9.214;2024-01-15T15:49:10;1.10;99.90
40816;DHT22;26535;48.788;9.214;2024-01-15T15:51:36;1.10;99.90
40816;DHT22;26535;48.788;9.214;2024-01-15T15:54:02;1.00;99.90
40816;DHT22;26535;48.788;9.214;2024-01-15T15:56:32;1.00;99.90
40816;DHT22;26535;48.788;9.214;2024-01-15T15:59:12;1.10;99.90
40816;DHT22;26535;48.788;9.214;2024-01-15T16:01:38;1.10;99.90